createdAt,value
2023-04-02T00:01:22.829Z,35.45
2023-04-02T00:04:01.169Z,34.50
2023-04-02T00:06:35.534Z,34.55
2023-04-02T00:09:46.609Z,34.63
2023-04-02T00:12:18.463Z,33.20
2023-04-02T00:14:53.836Z,36.20
2023-04-02T00:17:24.935Z,32.95
2023-04-02T00:20:00.298Z,35.95
2023-04-02T00:22:32.944Z,32.85
2023-04-02T00:25:04.776Z,35.30
2023-04-02T00:27:33.920Z,31.48
2023-04-02T00:30:03.019Z,33.63
2023-04-02T00:32:33.910Z,34.03
2023-04-02T00:35:02.960Z,31.42
2023-04-02T00:37:40.384Z,31.95
2023-04-02T00:40:12.439Z,30.48
2023-04-02T00:42:41.615Z,30.48
2023-04-02T00:45:32.352Z,31.88
2023-04-02T00:48:25.992Z,30.95
2023-04-02T00:50:55.101Z,29.92
2023-04-02T00:53:30.393Z,31.40
2023-04-02T00:56:02.610Z,29.75
2023-04-02T00:58:36.467Z,30.70
2023-04-02T01:01:06.075Z,31.88
2023-04-02T01:03:37.864Z,32.58
2023-04-02T01:06:12.152Z,32.95
2023-04-02T01:08:40.797Z,40.65
2023-04-02T01:11:33.250Z,37.97
2023-04-02T01:14:07.721Z,43.15
2023-04-02T01:16:51.775Z,42.42
2023-04-02T01:19:56.450Z,42.67
2023-04-02T01:22:36.445Z,43.67
2023-04-02T01:25:07.846Z,44.90
2023-04-02T01:28:09.865Z,43.28
2023-04-02T01:30:38.544Z,44.55
2023-04-02T01:33:08.318Z,43.40
2023-04-02T01:35:40.817Z,42.38
2023-04-02T01:38:15.177Z,39.85
2023-04-02T01:40:47.016Z,43.72
2023-04-02T01:43:54.957Z,38.67
2023-04-02T01:46:33.622Z,38.33
2023-04-02T01:49:04.952Z,35.80
2023-04-02T01:51:35.865Z,36.03
2023-04-02T01:54:08.375Z,36.20
2023-04-02T01:56:37.296Z,33.63
2023-04-02T01:59:07.290Z,33.67
2023-04-02T02:01:44.494Z,33.75
2023-04-02T02:04:17.134Z,30.83
2023-04-02T02:06:46.628Z,30.27
2023-04-02T02:09:22.049Z,31.13
2023-04-02T02:11:52.741Z,28.50
2023-04-02T02:14:24.525Z,29.77
2023-04-02T02:16:55.624Z,29.80
2023-04-02T02:19:51.986Z,29.88
2023-04-02T02:22:35.622Z,31.05
2023-04-02T02:25:06.749Z,30.02
2023-04-02T02:28:00.963Z,28.88
2023-04-02T02:30:57.744Z,29.88
2023-04-02T02:33:33.200Z,30.67
2023-04-02T02:36:39.111Z,30.63
2023-04-02T02:39:19.665Z,29.83
2023-04-02T02:42:04.875Z,32.10
2023-04-02T02:44:44.748Z,31.23
2023-04-02T02:47:39.816Z,31.88
2023-04-02T02:50:13.620Z,31.55
2023-04-02T02:52:47.146Z,32.63
2023-04-02T02:57:56.047Z,32.22
2023-04-02T03:00:26.163Z,32.75
2023-04-02T03:02:58.015Z,34.53
2023-04-02T03:05:29.297Z,34.65
2023-04-02T03:07:59.144Z,34.75
2023-04-02T03:10:47.765Z,36.47
2023-04-02T03:13:24.559Z,34.25
2023-04-02T03:16:22.214Z,34.10
2023-04-02T03:19:10.574Z,36.40
2023-04-02T03:21:50.587Z,33.97
2023-04-02T03:24:31.644Z,35.85
2023-04-02T03:27:17.322Z,35.55
2023-04-02T03:30:17.255Z,35.75
2023-04-02T03:32:46.412Z,35.97
2023-04-02T03:35:26.793Z,36.58
2023-04-02T03:38:02.491Z,36.92
2023-04-02T03:40:35.755Z,36.42
2023-04-02T03:43:25.424Z,36.22
2023-04-02T03:46:02.123Z,35.95
2023-04-02T03:48:39.979Z,37.72
2023-04-02T03:51:36.166Z,35.70
2023-04-02T03:54:05.253Z,37.03
2023-04-02T03:56:41.325Z,36.42
2023-04-02T03:59:37.189Z,38.97
2023-04-02T04:02:18.013Z,37.28
2023-04-02T04:04:51.257Z,38.63
2023-04-02T04:07:40.651Z,37.67
2023-04-02T04:10:10.790Z,36.67
2023-04-02T04:12:45.766Z,36.85
2023-04-02T04:15:33.653Z,35.20
2023-04-02T04:18:20.735Z,35.25
2023-04-02T04:20:58.517Z,36.35
2023-04-02T04:23:34.070Z,34.05
2023-04-02T04:26:10.753Z,35.70
2023-04-02T04:29:00.070Z,36.88
2023-04-02T04:31:56.751Z,37.17
2023-04-02T04:34:43.870Z,35.55
2023-04-02T04:37:26.603Z,37.03
2023-04-02T04:40:07.270Z,35.33
2023-04-02T04:42:38.066Z,35.17
2023-04-02T04:45:31.298Z,36.40
2023-04-02T04:48:03.661Z,37.37
2023-04-02T04:50:53.725Z,34.90
2023-04-02T04:53:24.801Z,35.90
2023-04-02T04:56:05.962Z,37.03
2023-04-02T04:59:05.311Z,32.67
2023-04-02T05:01:58.779Z,35.47
2023-04-02T05:04:37.605Z,34.10
2023-04-02T05:07:21.998Z,37.90
2023-04-02T05:10:12.505Z,38.55
2023-04-02T05:12:52.437Z,35.42
2023-04-02T05:15:28.085Z,35.65
2023-04-02T05:18:13.156Z,35.80
2023-04-02T05:20:50.598Z,34.90
2023-04-02T05:23:29.570Z,34.72
2023-04-02T05:26:16.323Z,39.13
2023-04-02T05:29:17.794Z,40.42
2023-04-02T05:31:51.239Z,39.10
2023-04-02T05:34:26.488Z,39.90
2023-04-02T05:36:57.035Z,40.63
2023-04-02T05:39:27.190Z,39.22
2023-04-02T05:42:12.524Z,37.35
2023-04-02T05:44:49.343Z,37.42
2023-04-02T05:47:30.926Z,40.83
2023-04-02T05:50:09.020Z,39.60
2023-04-02T05:52:55.357Z,42.33
2023-04-02T05:55:42.360Z,44.10
2023-04-02T05:58:59.459Z,42.95
2023-04-02T06:01:34.986Z,40.13
2023-04-02T06:04:21.838Z,41.83
2023-04-02T06:07:16.399Z,41.80
2023-04-02T06:09:55.882Z,41.63
2023-04-02T06:12:41.204Z,42.28
2023-04-02T06:15:20.583Z,44.53
2023-04-02T06:17:53.998Z,39.45
2023-04-02T06:20:22.823Z,41.10
2023-04-02T06:23:14.174Z,42.53
2023-04-02T06:25:49.907Z,41.60
2023-04-02T06:28:40.836Z,40.08
2023-04-02T06:31:13.706Z,39.80
2023-04-02T06:33:42.686Z,39.70
2023-04-02T06:36:13.598Z,41.28
2023-04-02T06:38:42.656Z,41.15
2023-04-02T06:41:19.624Z,40.60
2023-04-02T06:43:53.844Z,39.95
2023-04-02T06:46:32.023Z,42.65
2023-04-02T06:49:22.090Z,39.55
2023-04-02T06:51:52.521Z,38.05
2023-04-02T06:54:21.790Z,37.67
2023-04-02T06:56:52.956Z,37.70
2023-04-02T06:59:22.120Z,36.78
2023-04-02T07:01:54.815Z,36.90
2023-04-02T07:04:24.025Z,37.78
2023-04-02T07:06:53.439Z,36.50
2023-04-02T07:09:22.169Z,35.70
2023-04-02T07:11:50.816Z,37.55
2023-04-02T07:14:19.489Z,35.42
2023-04-02T07:16:48.427Z,37.08
2023-04-02T07:19:23.684Z,36.92
2023-04-02T07:21:52.358Z,36.83
2023-04-02T07:24:20.980Z,39.10
2023-04-02T07:26:49.592Z,37.80
2023-04-02T07:29:18.922Z,38.35
2023-04-02T07:31:47.732Z,39.63
2023-04-02T07:34:16.878Z,38.13
2023-04-02T07:36:45.580Z,38.83
2023-04-02T07:39:14.363Z,38.53
2023-04-02T07:41:54.550Z,39.05
2023-04-02T07:44:23.123Z,40.60
2023-04-02T07:46:51.988Z,40.15
2023-04-02T07:49:20.841Z,39.05
2023-04-02T07:51:50.265Z,40.35
2023-04-02T07:54:18.916Z,38.38
2023-04-02T07:56:47.691Z,40.58
2023-04-02T07:59:16.356Z,39.53
2023-04-02T08:01:45.134Z,40.42
2023-04-02T08:04:21.975Z,40.70
2023-04-02T08:06:51.740Z,41.13
2023-04-02T08:09:20.465Z,39.78
2023-04-02T08:11:49.270Z,37.70
2023-04-02T08:14:18.213Z,37.78
2023-04-02T08:16:48.308Z,39.38
2023-04-02T08:19:17.235Z,37.90
2023-04-02T08:21:51.852Z,38.47
2023-04-02T08:24:21.071Z,37.25
2023-04-02T08:26:51.202Z,38.40
2023-04-02T08:29:19.848Z,37.58
2023-04-02T08:31:48.672Z,38.38
2023-04-02T08:34:17.388Z,39.95
2023-04-02T08:36:46.963Z,38.17
2023-04-02T08:39:16.193Z,40.10
2023-04-02T08:42:32.165Z,40.55
2023-04-02T08:45:23.023Z,39.42
2023-04-02T08:47:56.744Z,39.78
2023-04-02T08:50:38.464Z,40.00
2023-04-02T08:53:15.945Z,40.03
2023-04-02T08:55:57.123Z,40.45
2023-04-02T08:58:34.897Z,41.65
2023-04-02T09:01:05.851Z,43.03
2023-04-02T09:03:41.020Z,41.38
2023-04-02T09:06:16.475Z,40.90
2023-04-02T09:08:47.584Z,40.70
2023-04-02T09:11:18.641Z,41.15
2023-04-02T09:13:49.629Z,40.80
2023-04-02T09:16:25.226Z,41.22
2023-04-02T09:18:54.884Z,40.05
2023-04-02T09:21:23.758Z,41.63
2023-04-02T09:23:52.311Z,42.92
2023-04-02T09:26:26.366Z,36.50
2023-04-02T09:29:14.839Z,39.15
2023-04-02T09:31:50.093Z,36.90
2023-04-02T09:34:38.399Z,38.88
2023-04-02T09:37:16.175Z,40.45
2023-04-02T09:39:45.025Z,38.67
2023-04-02T09:42:39.370Z,36.38
2023-04-02T09:45:22.602Z,38.92
2023-04-02T09:47:53.267Z,39.70
2023-04-02T09:50:34.137Z,39.13
2023-04-02T09:53:30.269Z,38.72
2023-04-02T09:56:25.880Z,39.30
2023-04-02T09:59:23.914Z,38.65
2023-04-02T10:01:55.367Z,35.72
2023-04-02T10:04:39.776Z,37.78
2023-04-02T10:07:09.014Z,37.80
2023-04-02T10:09:39.950Z,40.08
2023-04-02T10:12:13.834Z,37.95
2023-04-02T10:14:45.292Z,38.50
2023-04-02T10:17:27.279Z,40.78
2023-04-02T10:20:18.716Z,37.30
2023-04-02T10:22:48.295Z,36.58
2023-04-02T10:25:18.829Z,37.53
2023-04-02T10:28:07.635Z,35.90
2023-04-02T10:30:48.786Z,36.30
2023-04-02T10:33:35.027Z,36.50
2023-04-02T10:36:40.758Z,34.75
2023-04-02T10:39:13.461Z,35.30
2023-04-02T10:41:59.013Z,32.83
2023-04-02T10:44:45.846Z,35.50
2023-04-02T10:47:33.499Z,36.47
2023-04-02T10:50:22.837Z,36.17
2023-04-02T10:53:03.984Z,37.92
2023-04-02T10:55:35.649Z,36.55
2023-04-02T10:58:09.772Z,36.90
2023-04-02T11:00:41.747Z,35.97
2023-04-02T11:03:29.702Z,37.72
2023-04-02T11:06:00.980Z,37.53
2023-04-02T11:08:44.305Z,39.45
2023-04-02T11:11:17.410Z,35.10
2023-04-02T11:14:23.208Z,39.45
2023-04-02T11:16:53.960Z,38.63
2023-04-02T11:19:24.668Z,39.10
2023-04-02T11:22:07.972Z,40.72
2023-04-02T11:24:52.259Z,39.00
2023-04-02T11:27:27.745Z,36.85
2023-04-02T11:30:19.732Z,36.95
2023-04-02T11:32:50.835Z,36.45
2023-04-02T11:35:39.103Z,38.03
2023-04-02T11:38:14.247Z,36.53
2023-04-02T11:40:43.083Z,36.58
2023-04-02T11:43:39.077Z,35.63
2023-04-02T11:46:32.466Z,35.08
2023-04-02T11:49:39.048Z,35.70
2023-04-02T11:52:22.442Z,35.83
2023-04-02T11:55:04.788Z,33.97
2023-04-02T11:57:53.260Z,34.92
2023-04-02T12:00:52.917Z,34.53
2023-04-02T12:03:33.934Z,32.45
2023-04-02T12:06:27.027Z,32.88
2023-04-02T12:09:30.184Z,31.73
2023-04-02T12:12:17.798Z,30.67
2023-04-02T12:14:51.860Z,31.05
2023-04-02T12:17:32.158Z,32.53
2023-04-02T12:20:25.985Z,32.10
2023-04-02T12:22:56.938Z,33.25
2023-04-02T12:25:34.497Z,32.05
2023-04-02T12:28:08.981Z,30.80
2023-04-02T12:30:38.663Z,31.48
2023-04-02T12:33:28.738Z,31.27
2023-04-02T12:36:03.089Z,33.72
2023-04-02T12:38:59.080Z,30.95
2023-04-02T12:41:31.420Z,34.75
2023-04-02T12:44:04.815Z,34.22
2023-04-02T12:46:37.199Z,33.85
2023-04-02T12:49:14.930Z,35.22
2023-04-02T12:51:43.860Z,35.80
2023-04-02T12:54:18.783Z,31.55
2023-04-02T12:56:47.758Z,37.60
2023-04-02T12:59:38.153Z,36.63
2023-04-02T13:02:20.653Z,35.60
2023-04-02T13:05:04.942Z,34.85
2023-04-02T13:07:35.082Z,34.75
2023-04-02T13:10:07.035Z,33.13
2023-04-02T13:12:45.674Z,35.28
2023-04-02T13:15:28.245Z,35.25
2023-04-02T13:18:07.865Z,32.28
2023-04-02T13:20:41.724Z,31.65
2023-04-02T13:23:30.393Z,32.80
2023-04-02T13:26:08.154Z,30.00
2023-04-02T13:28:36.804Z,30.83
2023-04-02T13:31:05.423Z,32.58
2023-04-02T13:33:34.087Z,32.08
2023-04-02T13:36:02.769Z,33.28
2023-04-02T13:38:31.487Z,31.23
2023-04-02T13:41:00.154Z,30.45
2023-04-02T13:43:28.777Z,29.98
2023-04-02T13:45:58.208Z,30.67
2023-04-02T13:48:30.106Z,30.48
2023-04-02T13:50:58.756Z,32.38
2023-04-02T13:53:32.505Z,31.90
2023-04-02T13:56:01.088Z,29.48
2023-04-02T13:58:29.720Z,28.67
2023-04-02T14:00:58.412Z,28.95
2023-04-02T14:03:27.191Z,28.83
2023-04-02T14:06:13.470Z,28.65
2023-04-02T14:09:07.963Z,28.98
2023-04-02T14:11:43.899Z,26.83
2023-04-02T14:14:33.694Z,24.52
2023-04-02T14:17:11.704Z,23.15
2023-04-02T14:20:03.463Z,21.38
2023-04-02T14:23:05.948Z,17.23
2023-04-02T14:25:45.786Z,14.93
2023-04-02T14:28:31.305Z,14.43
2023-04-02T14:31:15.599Z,13.57
2023-04-02T14:33:59.210Z,12.70
2023-04-02T14:36:33.718Z,11.90
2023-04-02T14:39:34.052Z,11.65
2023-04-02T14:42:15.190Z,10.23
2023-04-02T14:44:51.420Z,9.55
2023-04-02T14:47:20.089Z,11.10
2023-04-02T14:49:51.133Z,10.07
2023-04-02T14:52:23.289Z,10.48
2023-04-02T14:55:11.752Z,10.20
2023-04-02T14:57:50.207Z,9.52
2023-04-02T15:00:20.611Z,8.70
2023-04-02T15:03:04.746Z,9.82
2023-04-02T15:05:49.932Z,8.10
2023-04-02T15:08:31.814Z,7.35
2023-04-02T15:11:08.081Z,7.72
2023-04-02T15:13:47.487Z,8.65
2023-04-02T15:16:23.727Z,9.10
2023-04-02T15:18:58.136Z,7.97
2023-04-02T15:24:48.417Z,7.38
2023-04-02T15:27:53.389Z,6.53
2023-04-02T15:30:32.355Z,6.90
2023-04-02T15:33:29.887Z,6.32
2023-04-02T15:36:17.271Z,5.47
2023-04-02T15:38:49.729Z,4.60
2023-04-02T15:41:27.759Z,5.30
2023-04-02T15:44:16.234Z,4.43
2023-04-02T15:46:57.421Z,5.25
2023-04-02T15:49:51.441Z,4.25
2023-04-02T15:53:02.445Z,4.57
2023-04-02T15:55:40.957Z,3.95
2023-04-02T15:58:15.457Z,3.47
2023-04-02T16:01:05.796Z,3.38
2023-04-02T16:03:58.689Z,3.28
2023-04-02T16:06:58.695Z,2.97
2023-04-02T16:09:32.091Z,3.13
2023-04-02T16:12:11.530Z,3.33
2023-04-02T16:14:40.870Z,3.10
2023-04-02T16:17:24.773Z,3.13
2023-04-02T16:20:21.356Z,2.90
2023-04-02T16:23:00.819Z,2.97
2023-04-02T16:25:49.657Z,3.28
2023-04-02T16:28:42.046Z,3.40
2023-04-02T16:31:13.362Z,3.03
2023-04-02T16:34:03.878Z,3.05
2023-04-02T16:36:44.345Z,2.80
2023-04-02T16:39:37.056Z,2.90
2023-04-02T16:42:21.114Z,2.58
2023-04-02T16:45:16.425Z,2.13
2023-04-02T16:47:48.718Z,1.73
2023-04-02T16:50:39.884Z,1.45
2023-04-02T16:53:33.163Z,1.38
2023-04-02T16:56:08.687Z,1.27
2023-04-02T16:58:56.570Z,1.38
2023-04-02T17:01:56.510Z,1.33
2023-04-02T17:04:37.022Z,1.20
2023-04-02T17:07:42.532Z,1.58
2023-04-02T17:10:32.954Z,1.50
2023-04-02T17:13:10.409Z,1.55
2023-04-02T17:15:43.278Z,1.50
2023-04-02T17:18:18.661Z,1.42
2023-04-02T17:20:49.336Z,1.80
2023-04-02T17:23:19.581Z,1.63
2023-04-02T17:26:09.021Z,1.70
2023-04-02T17:28:38.202Z,1.60
2023-04-02T17:31:23.537Z,1.85
2023-04-02T17:33:52.199Z,2.10
2023-04-02T17:36:27.419Z,2.67
2023-04-02T17:39:30.971Z,2.65
2023-04-02T17:42:36.614Z,2.47
2023-04-02T17:45:13.993Z,2.22
2023-04-02T17:47:56.606Z,2.42
2023-04-02T17:50:38.979Z,2.45
2023-04-02T17:53:24.319Z,3.08
2023-04-02T17:56:08.253Z,3.60
2023-04-02T17:58:55.696Z,3.42
2023-04-02T18:01:37.258Z,2.85
2023-04-02T18:04:40.246Z,3.00
2023-04-02T18:07:17.740Z,3.60
2023-04-02T18:09:52.363Z,3.40
2023-04-02T18:12:40.711Z,3.28
2023-04-02T18:15:39.917Z,3.28
2023-04-02T18:18:36.096Z,2.63
2023-04-02T18:21:23.450Z,2.80
2023-04-02T18:24:15.679Z,3.17
2023-04-02T18:27:04.948Z,3.15
2023-04-02T18:29:49.402Z,3.90
2023-04-02T18:32:30.590Z,5.07
2023-04-02T18:35:26.963Z,4.80
2023-04-02T18:37:58.471Z,5.30
2023-04-02T18:40:59.607Z,5.68
2023-04-02T18:43:54.858Z,6.38
2023-04-02T18:46:56.985Z,6.40
2023-04-02T18:49:30.816Z,6.68
2023-04-02T18:52:05.189Z,7.38
2023-04-02T18:54:40.294Z,6.57
2023-04-02T18:57:31.949Z,6.72
2023-04-02T19:00:07.524Z,7.50
2023-04-02T19:02:50.647Z,6.95
2023-04-02T19:05:29.589Z,8.02
2023-04-02T19:08:23.195Z,7.72
2023-04-02T19:11:15.437Z,8.57
2023-04-02T19:13:46.343Z,8.43
2023-04-02T19:16:29.946Z,8.27
2023-04-02T19:19:20.741Z,8.77
2023-04-02T19:22:03.960Z,7.10
2023-04-02T19:24:59.521Z,7.18
2023-04-02T19:27:52.726Z,6.88
2023-04-02T19:30:36.158Z,7.85
2023-04-02T19:33:35.663Z,6.95
2023-04-02T19:36:20.933Z,6.55
2023-04-02T19:38:55.019Z,6.82
2023-04-02T19:41:32.075Z,6.97
2023-04-02T19:44:00.847Z,6.82
2023-04-02T19:46:30.079Z,6.43
2023-04-02T19:49:24.071Z,6.07
2023-04-02T19:51:53.178Z,6.22
2023-04-02T19:54:21.792Z,4.75
2023-04-02T19:56:50.689Z,5.40
2023-04-02T19:59:19.737Z,6.63
2023-04-02T20:01:48.884Z,5.70
2023-04-02T20:04:17.594Z,5.82
2023-04-02T20:06:46.269Z,4.88
2023-04-02T20:09:14.849Z,5.10
2023-04-02T20:11:46.118Z,4.90
2023-04-02T20:14:14.722Z,4.78
2023-04-02T20:16:44.623Z,5.18
2023-04-02T20:19:14.381Z,5.07
2023-04-02T20:21:42.936Z,5.13
2023-04-02T20:24:11.617Z,4.88
2023-04-02T20:26:40.302Z,4.65
2023-04-02T20:29:08.908Z,4.85
2023-04-02T20:31:37.731Z,4.60
2023-04-02T20:34:07.949Z,4.40
2023-04-02T20:36:36.662Z,4.82
2023-04-02T20:39:08.594Z,4.40
2023-04-02T20:41:37.188Z,4.05
2023-04-02T20:44:05.829Z,4.03
2023-04-02T20:46:34.948Z,4.65
2023-04-02T20:49:03.819Z,4.63
2023-04-02T20:51:32.732Z,4.93
2023-04-02T20:54:01.637Z,4.60
2023-04-02T20:56:30.115Z,4.05
2023-04-02T20:58:58.751Z,4.60
2023-04-02T21:01:28.663Z,4.88
2023-04-02T21:03:58.716Z,4.53
2023-04-02T21:06:29.487Z,4.93
2023-04-02T21:08:58.089Z,4.47
2023-04-02T21:11:28.135Z,4.50
2023-04-02T21:13:56.961Z,5.55
2023-04-02T21:16:29.917Z,4.80
2023-04-02T21:19:00.150Z,5.80
2023-04-02T21:21:28.961Z,5.50
2023-04-02T21:24:02.700Z,6.05
2023-04-02T21:26:34.615Z,6.60
2023-04-02T21:29:04.099Z,6.28
2023-04-02T21:31:38.686Z,6.50
2023-04-02T21:34:08.257Z,6.53
2023-04-02T21:36:39.174Z,7.38
2023-04-02T21:39:10.582Z,6.50
2023-04-02T21:41:44.405Z,7.25
2023-04-02T21:44:16.018Z,6.70
2023-04-02T21:46:48.299Z,7.63
2023-04-02T21:49:20.437Z,6.75
2023-04-02T21:51:50.364Z,7.32
2023-04-02T21:54:19.065Z,7.20
2023-04-02T21:56:48.341Z,7.47
2023-04-02T21:59:18.439Z,7.25
2023-04-02T22:01:52.582Z,7.55
2023-04-02T22:04:26.605Z,8.60
2023-04-02T22:06:55.541Z,8.35
2023-04-02T22:09:26.455Z,9.18
2023-04-02T22:12:00.216Z,9.20
2023-04-02T22:14:32.005Z,9.93
2023-04-02T22:17:00.306Z,10.23
2023-04-02T22:19:29.258Z,9.48
2023-04-02T22:21:58.220Z,10.20
2023-04-02T22:24:27.003Z,9.18
2023-04-02T22:26:55.872Z,1.88
2023-04-02T22:29:24.500Z,1.30
2023-04-02T22:31:53.144Z,1.00
2023-04-02T22:34:22.307Z,1.10
2023-04-02T22:36:50.925Z,1.30
2023-04-02T22:39:19.648Z,1.70
2023-04-02T22:41:48.215Z,1.20
2023-04-02T22:44:17.499Z,1.08
2023-04-02T22:46:46.101Z,0.90
2023-04-02T22:49:20.320Z,1.70
2023-04-02T22:51:48.961Z,1.60
2023-04-02T22:54:17.720Z,1.15
2023-04-02T22:56:46.469Z,0.95
2023-04-02T22:59:15.096Z,1.25
2023-04-02T23:01:43.811Z,1.00
2023-04-02T23:04:12.615Z,1.30
2023-04-02T23:06:41.250Z,1.05
2023-04-02T23:09:10.105Z,1.17
2023-04-02T23:11:39.009Z,0.93
2023-04-02T23:14:08.274Z,1.15
2023-04-02T23:16:36.915Z,1.00
2023-04-02T23:19:05.604Z,1.00
2023-04-02T23:21:34.170Z,1.00
2023-04-02T23:24:02.804Z,1.00
2023-04-02T23:26:32.806Z,1.40
2023-04-02T23:29:01.975Z,1.25
2023-04-02T23:31:30.814Z,1.00
2023-04-02T23:33:59.867Z,0.98
2023-04-02T23:36:34.164Z,0.80
2023-04-02T23:39:06.270Z,0.85
2023-04-02T23:41:35.011Z,1.20
2023-04-02T23:44:03.938Z,1.60
2023-04-02T23:46:33.138Z,14.30
2023-04-02T23:49:02.502Z,4.95
2023-04-02T23:51:35.329Z,1.73
2023-04-02T23:54:03.999Z,1.98
2023-04-02T23:56:33.032Z,1.00
2023-04-02T23:59:01.853Z,2.28
